EGML weather

Damyns Hall Aerodrome
Upminster, England, United Kingdom

Public forecast

Using degrees Celsius for public forecast. Weather courtesy of forecast.io.

METAR (pilot weather report)

Closest report is London City Airport, 7.2 nm (13.4 km) W. Retrieved 2019/03/26 09:20 UTC (25 minutes ago):

EGLC 260920Z AUTO 30008KT 9999 NCD 07/02 Q1035

TAF (pilot weather forecast)

Forecast is more than 12 hours old.

Closest forecast is London City Airport, 7.2 nm (13.4 km) W. Retrieved 2018/10/15 21:30 UTC (5 months ago):

TAF EGLC 152119Z 1521/1621 CNL